Time;durP1;ratioP1;P1;durP2;ratioP2;P2;SDS_P1;SDS_P2;PMS_P1;PMS_P2;Temp;Humidity;BMP_temperature;BMP_pressure;BME280_temperature;BME280_humidity;BME280_pressure;Samples;Min_cycle;Max_cycle;Signal;HPM_P1;HPM_P2
2023/03/28 00:00:08;;;;;;;6.57;3.38;;;;;;;-0.78;100.00;96037.53;5034768;28;20044;-72
2023/03/28 00:02:54;;;;;;;5.75;3.20;;;;;;;-0.80;100.00;96036.91;5039578;28;20044;-72
2023/03/28 00:05:20;;;;;;;8.60;3.97;;;;;;;-0.82;100.00;96041.47;5035507;28;20551;-72
2023/03/28 00:07:46;;;;;;;6.22;3.38;;;;;;;-0.87;100.00;96049.75;5030680;28;20042;-72
2023/03/28 00:10:12;;;;;;;6.45;3.45;;;;;;;-0.83;100.00;96045.00;5040283;28;20041;-72
2023/03/28 00:12:38;;;;;;;7.72;3.67;;;;;;;-0.88;100.00;96041.22;5045303;28;20574;-73
2023/03/28 00:15:04;;;;;;;9.77;3.13;;;;;;;-0.95;100.00;96050.69;5039805;28;20152;-73
2023/03/28 00:17:30;;;;;;;9.23;3.65;;;;;;;-0.92;100.00;96049.50;5030979;28;20507;-72
2023/03/28 00:19:56;;;;;;;12.25;4.25;;;;;;;-0.93;100.00;96055.69;5040144;28;20048;-73
2023/03/28 00:22:22;;;;;;;12.30;4.15;;;;;;;-0.95;100.00;96048.13;5045610;28;20519;-73
2023/03/28 00:24:49;;;;;;;6.80;3.95;;;;;;;-0.95;100.00;96048.13;5041636;28;20049;-73
2023/03/28 00:27:16;;;;;;;11.68;4.20;;;;;;;-0.96;100.00;96053.44;5035981;28;20041;-73
2023/03/28 00:29:42;;;;;;;11.55;4.05;;;;;;;-0.93;100.00;96055.69;5039095;28;20033;-73
2023/03/28 00:32:08;;;;;;;7.15;3.67;;;;;;;-0.95;100.00;96053.28;5040625;28;20037;-73
2023/03/28 00:34:34;;;;;;;8.95;4.18;;;;;;;-0.97;100.00;96065.56;5038902;28;20037;-73
2023/03/28 00:37:04;;;;;;;8.25;3.75;;;;;;;-0.89;100.00;96064.63;5044590;28;20041;-73
2023/03/28 00:39:30;;;;;;;13.07;4.13;;;;;;;-0.89;100.00;96062.88;5037085;28;20041;-73
2023/03/28 00:42:00;;;;;;;11.57;4.40;;;;;;;-0.91;100.00;96070.00;5039660;28;20474;-72
2023/03/28 00:44:56;;;;;;;8.13;4.13;;;;;;;-0.88;100.00;96069.66;5041960;28;20045;-73
2023/03/28 00:47:29;;;;;;;9.70;3.80;;;;;;;-0.83;100.00;96076.03;5032695;28;20077;-73
2023/03/28 00:50:18;;;;;;;9.73;3.80;;;;;;;-0.82;100.00;96075.06;5046638;28;20069;-73
2023/03/28 00:53:03;;;;;;;12.63;4.63;;;;;;;-0.84;100.00;96074.44;5043838;28;20304;-73
2023/03/28 00:55:35;;;;;;;9.60;4.22;;;;;;;-0.79;100.00;96077.25;5042383;28;20540;-73
2023/03/28 00:58:05;;;;;;;8.30;3.47;;;;;;;-0.73;100.00;96076.56;5039726;28;20068;-73
2023/03/28 01:00:33;;;;;;;12.15;4.15;;;;;;;-0.74;100.00;96080.13;5037300;28;20033;-73
2023/03/28 01:03:01;;;;;;;9.32;3.97;;;;;;;-0.79;100.00;96082.44;5047295;28;20124;-73
2023/03/28 01:05:31;;;;;;;9.32;4.75;;;;;;;-0.79;100.00;96082.44;5042761;28;20044;-73
2023/03/28 01:08:19;;;;;;;10.30;4.68;;;;;;;-0.80;100.00;96086.03;5039735;28;20044;-73
2023/03/28 01:10:46;;;;;;;10.40;4.95;;;;;;;-0.84;100.00;96090.75;5037238;28;20057;-73
2023/03/28 01:13:15;;;;;;;10.95;4.43;;;;;;;-0.85;100.00;96083.19;5042347;28;20047;-73
2023/03/28 01:15:41;;;;;;;10.98;4.75;;;;;;;-0.84;100.00;96077.03;5033122;28;20428;-73
2023/03/28 01:18:09;;;;;;;12.05;4.65;;;;;;;-0.89;100.00;96083.53;5038293;28;20037;-73
2023/03/28 01:21:09;;;;;;;13.45;5.40;;;;;;;-0.85;100.00;96083.19;5044620;28;20033;-72
2023/03/28 01:23:37;;;;;;;9.48;5.28;;;;;;;-0.90;100.00;96084.53;5026602;28;20066;-73
2023/03/28 01:26:21;;;;;;;11.68;5.68;;;;;;;-0.88;100.00;96085.16;5041233;28;20048;-73
2023/03/28 01:29:08;;;;;;;10.77;5.15;;;;;;;-0.87;100.00;96091.91;5039149;28;20048;-73
2023/03/28 01:32:11;;;;;;;15.75;6.28;;;;;;;-0.89;100.00;96088.72;5035374;28;20524;-73
2023/03/28 01:35:16;;;;;;;9.13;5.15;;;;;;;-0.92;100.00;96099.41;5032149;28;20033;-72
2023/03/28 01:38:00;;;;;;;11.48;5.03;;;;;;;-0.94;100.00;96093.63;5020748;28;20060;-71
2023/03/28 01:40:53;;;;;;;14.60;5.47;;;;;;;-1.02;100.00;96093.75;5021367;28;20054;-73
2023/03/28 01:43:27;;;;;;;10.00;5.35;;;;;;;-0.99;100.00;96098.53;5035346;28;20298;-73
2023/03/28 01:46:20;;;;;;;11.40;6.60;;;;;;;-1.06;100.00;96095.09;5038817;28;20041;-73
2023/03/28 01:49:03;;;;;;;12.27;6.03;;;;;;;-1.08;100.00;96099.63;5044557;28;20265;-73
2023/03/28 01:51:38;;;;;;;15.63;6.15;;;;;;;-1.11;100.00;96099.97;5041603;28;20048;-73
2023/03/28 01:54:06;;;;;;;10.18;5.82;;;;;;;-1.11;100.00;96095.59;5032053;28;20053;-73
2023/03/28 01:56:45;;;;;;;15.20;6.78;;;;;;;-1.13;100.00;96094.22;5033020;28;20424;-73
2023/03/28 01:59:14;;;;;;;13.52;6.18;;;;;;;-1.23;100.00;96102.22;5047171;28;20037;-73
2023/03/28 02:01:52;;;;;;;17.58;6.82;;;;;;;-1.19;100.00;96098.31;5042860;28;20080;-73
2023/03/28 02:04:22;;;;;;;13.93;6.88;;;;;;;-1.16;100.00;96102.31;5035928;28;20040;-74
2023/03/28 02:06:50;;;;;;;15.73;7.07;;;;;;;-1.18;100.00;96109.44;5044844;28;20037;-74
2023/03/28 02:09:19;;;;;;;15.93;6.93;;;;;;;-1.18;100.00;96107.63;5042365;28;20033;-73
2023/03/28 02:11:48;;;;;;;15.23;6.85;;;;;;;-1.15;100.00;96114.22;5036406;28;20045;-73
2023/03/28 02:14:20;;;;;;;15.18;6.63;;;;;;;-1.13;100.00;96117.47;5040272;28;20049;-74
2023/03/28 02:16:49;;;;;;;14.15;6.90;;;;;;;-1.17;100.00;96111.03;5031205;28;20041;-73
2023/03/28 02:19:17;;;;;;;15.27;6.85;;;;;;;-1.19;100.00;96115.56;5043693;28;20068;-73
2023/03/28 02:21:55;;;;;;;19.00;7.85;;;;;;;-1.29;100.00;96113.28;5037788;28;20187;-73
2023/03/28 02:24:21;;;;;;;15.98;7.13;;;;;;;-1.30;100.00;96112.47;5041345;28;20048;-74
2023/03/28 02:26:47;;;;;;;21.00;8.10;;;;;;;-1.28;100.00;96113.09;5037214;28;20044;-74
2023/03/28 02:29:14;;;;;;;16.80;7.88;;;;;;;-1.29;100.00;96114.09;5041713;28;20068;-74
2023/03/28 02:31:40;;;;;;;19.80;7.72;;;;;;;-1.34;100.00;96118.97;5044811;28;20642;-73
2023/03/28 02:34:07;;;;;;;22.63;8.57;;;;;;;-1.24;100.00;96119.50;5037915;28;20446;-74
2023/03/28 02:37:02;;;;;;;24.17;8.18;;;;;;;-1.34;100.00;96118.97;5040565;28;20037;-73
2023/03/28 02:39:37;;;;;;;;;;;;;;;-1.30;100.00;96122.00;5041572;28;20040;-74
2023/03/28 02:42:24;;;;;;;16.52;6.85;;;;;;;-1.36;100.00;96123.53;5046090;28;19921;-74
2023/03/28 02:45:05;;;;;;;15.48;7.00;;;;;;;-1.38;100.00;96128.03;5039089;28;20037;-74
2023/03/28 02:47:52;;;;;;;18.60;7.18;;;;;;;-1.35;100.00;96135.47;5036158;28;20044;-74
2023/03/28 02:50:47;;;;;;;21.65;7.65;;;;;;;-1.46;100.00;96128.94;5038774;28;20041;-74
2023/03/28 02:53:21;;;;;;;;;;;;;;;-1.49;100.00;96133.69;5040902;28;20464;-74
2023/03/28 02:56:03;;;;;;;15.07;6.38;;;;;;;-1.47;100.00;96131.72;5039189;28;19954;-75
2023/03/28 02:58:53;;;;;;;20.23;7.65;;;;;;;-1.48;100.00;96135.25;5033941;28;20075;-75
2023/03/28 03:01:20;;;;;;;17.63;8.32;;;;;;;-1.57;100.00;96137.94;5033015;28;20095;-74
2023/03/28 03:03:48;;;;;;;21.17;8.02;;;;;;;-1.59;100.00;96134.72;5032645;28;20489;-74
2023/03/28 03:06:16;;;;;;;24.48;8.05;;;;;;;-1.53;100.00;96140.19;5039796;28;20037;-75
2023/03/28 03:08:42;;;;;;;19.75;7.78;;;;;;;-1.57;100.00;96143.13;5035566;28;20512;-75
2023/03/28 03:11:08;;;;;;;19.40;8.18;;;;;;;-1.53;100.00;96142.75;5035934;28;20048;-74
2023/03/28 03:13:34;;;;;;;21.02;8.57;;;;;;;-1.42;100.00;96144.91;5030021;28;20049;-75
2023/03/28 03:15:59;;;;;;;19.25;6.88;;;;;;;-1.48;100.00;96140.44;5034151;28;20046;-74
2023/03/28 03:18:25;;;;;;;23.02;8.30;;;;;;;-1.48;100.00;96151.56;5032689;28;20750;-73
2023/03/28 03:20:51;;;;;;;22.27;8.75;;;;;;;-1.46;100.00;96154.75;5042926;28;20124;-74
2023/03/28 03:23:16;;;;;;;25.42;8.88;;;;;;;-1.50;100.00;96147.56;5031081;28;20390;-75
2023/03/28 03:25:42;;;;;;;24.30;8.52;;;;;;;-1.52;100.00;96144.34;5035513;28;20493;-75
2023/03/28 03:28:08;;;;;;;23.77;8.90;;;;;;;-1.52;100.00;96157.25;5032567;28;20413;-74
2023/03/28 03:30:34;;;;;;;28.27;9.00;;;;;;;-1.53;100.00;96148.72;5037926;28;20048;-75
2023/03/28 03:33:00;;;;;;;23.70;8.80;;;;;;;-1.53;100.00;96153.09;5037113;28;20045;-74
2023/03/28 03:35:32;;;;;;;42.35;10.15;;;;;;;-1.50;100.00;96153.50;5029859;28;20056;-74
2023/03/28 03:37:58;;;;;;;23.60;9.20;;;;;;;-1.54;100.00;96156.63;5038208;28;20120;-75
2023/03/28 03:40:24;;;;;;;22.80;9.82;;;;;;;-1.61;100.00;96161.69;5034857;28;20505;-74
2023/03/28 03:42:50;;;;;;;22.90;8.15;;;;;;;-1.54;100.00;96166.97;5039874;28;20065;-73
2023/03/28 03:45:16;;;;;;;24.88;7.78;;;;;;;-1.58;100.00;96167.31;5038054;28;20048;-74
2023/03/28 03:47:41;;;;;;;23.00;9.23;;;;;;;-1.59;100.00;96163.13;5040101;28;20163;-74
2023/03/28 03:50:08;;;;;;;29.08;9.73;;;;;;;-1.64;100.00;96172.38;5029861;28;20059;-74
2023/03/28 03:52:33;;;;;;;30.60;10.85;;;;;;;-1.64;100.00;96183.50;5042123;28;20037;-75
2023/03/28 03:55:00;;;;;;;28.35;9.48;;;;;;;-1.67;100.00;96177.88;5033415;28;20041;-74
2023/03/28 03:57:26;;;;;;;26.10;9.77;;;;;;;-1.62;100.00;96186.72;5034202;28;20050;-76
2023/03/28 03:59:51;;;;;;;29.40;11.40;;;;;;;-1.64;100.00;96183.50;5041304;28;20048;-75
2023/03/28 04:02:17;;;;;;;30.98;10.43;;;;;;;-1.53;100.00;96184.06;5043494;28;20041;-75
2023/03/28 04:04:44;;;;;;;41.97;16.75;;;;;;;-1.59;100.00;96180.41;5040219;28;20163;-75
2023/03/28 04:07:12;;;;;;;32.10;11.65;;;;;;;-1.62;100.00;96188.50;5032780;28;20041;-75
2023/03/28 04:09:38;;;;;;;31.70;11.27;;;;;;;-1.63;100.00;96190.25;5030509;28;20037;-76
2023/03/28 04:12:05;;;;;;;31.10;10.60;;;;;;;-1.67;100.00;96194.16;5032697;28;20053;-76
2023/03/28 04:14:30;;;;;;;29.90;9.77;;;;;;;-1.64;100.00;96193.84;5035415;28;20412;-75
2023/03/28 04:16:56;;;;;;;39.67;13.13;;;;;;;-1.63;100.00;96203.16;5041115;28;20049;-74
2023/03/28 04:19:23;;;;;;;33.80;11.20;;;;;;;-1.69;100.00;96203.09;5033299;28;20390;-74
2023/03/28 04:21:51;;;;;;;26.73;10.35;;;;;;;-1.65;100.00;96202.56;5043131;28;20098;-75
2023/03/28 04:24:23;;;;;;;30.33;10.23;;;;;;;-1.62;100.00;96197.03;5042741;28;20045;-75
2023/03/28 04:26:54;;;;;;;24.95;10.48;;;;;;;-1.65;100.00;96201.72;5047615;28;20524;-75
2023/03/28 04:29:30;;;;;;;27.45;11.45;;;;;;;-1.63;100.00;96200.59;5039714;28;20040;-74
2023/03/28 04:31:58;;;;;;;34.25;10.68;;;;;;;-1.76;100.00;96205.53;5038610;28;20038;-74
2023/03/28 04:34:28;;;;;;;33.40;11.32;;;;;;;-1.69;100.00;96211.63;5039696;28;20049;-75
2023/03/28 04:37:00;;;;;;;28.30;10.52;;;;;;;-1.70;100.00;96215.16;5042185;28;20045;-75
2023/03/28 04:39:31;;;;;;;28.02;10.60;;;;;;;-1.75;100.00;96212.31;5042090;28;20496;-75
2023/03/28 04:42:00;;;;;;;28.80;10.07;;;;;;;-1.82;100.00;96208.84;5036576;28;20112;-73
2023/03/28 04:44:28;;;;;;;26.33;10.57;;;;;;;-1.86;100.00;96215.31;5036752;28;20041;-74
2023/03/28 04:46:54;;;;;;;27.80;10.35;;;;;;;-1.96;100.00;96211.16;5045642;28;20049;-74
2023/03/28 04:49:20;;;;;;;39.47;12.05;;;;;;;-1.95;100.00;96217.94;5045038;28;20642;-74
2023/03/28 04:51:47;;;;;;;27.08;10.18;;;;;;;-1.87;100.00;96213.69;5034287;28;20048;-74
2023/03/28 04:54:13;;;;;;;29.30;10.18;;;;;;;-1.88;100.00;96219.81;5043959;28;20045;-73
2023/03/28 04:56:39;;;;;;;27.98;10.70;;;;;;;-1.89;100.00;96220.81;5046571;28;20146;-74
2023/03/28 04:59:05;;;;;;;25.48;10.55;;;;;;;-1.83;100.00;96225.28;5045832;28;20044;-74
2023/03/28 05:01:31;;;;;;;34.60;10.52;;;;;;;-1.84;100.00;96226.25;5038383;28;20034;-74
2023/03/28 05:03:57;;;;;;;31.13;10.80;;;;;;;-1.88;100.00;96227.56;5043795;28;20056;-74
2023/03/28 05:06:24;;;;;;;27.38;9.75;;;;;;;-1.94;100.00;96224.72;5040505;28;20656;-76
2023/03/28 05:08:50;;;;;;;33.05;10.82;;;;;;;-1.87;100.00;96229.19;5039740;28;20049;-75
2023/03/28 05:11:16;;;;;;;33.80;9.85;;;;;;;-1.97;100.00;96240.53;5035505;28;20041;-76
2023/03/28 05:13:41;;;;;;;27.35;10.75;;;;;;;-2.01;100.00;96236.69;5044306;28;20076;-76
2023/03/28 05:16:07;;;;;;;35.78;10.75;;;;;;;-2.02;100.00;96242.81;5038186;28;20037;-76
2023/03/28 05:18:33;;;;;;;37.83;11.77;;;;;;;-2.05;100.00;96243.16;5041147;28;20412;-77
2023/03/28 05:20:58;;;;;;;22.48;9.98;;;;;;;-2.07;100.00;96244.31;5039942;28;20114;-77
2023/03/28 05:23:24;;;;;;;24.95;9.70;;;;;;;-2.05;100.00;96248.34;5038793;28;20130;-76
2023/03/28 05:25:52;;;;;;;27.85;11.77;;;;;;;-2.11;100.00;96249.03;5039807;28;20052;-77
2023/03/28 05:28:17;;;;;;;26.08;10.00;;;;;;;-2.17;100.00;96249.69;5043146;28;20044;-76
2023/03/28 05:30:43;;;;;;;30.23;10.52;;;;;;;-2.16;100.00;96261.63;5047173;28;20045;-77
2023/03/28 05:33:09;;;;;;;30.35;9.45;;;;;;;-2.20;100.00;96260.34;5066509;28;20497;-77
2023/03/28 05:35:36;;;;;;;28.70;9.60;;;;;;;-2.18;100.00;96248.09;5046916;28;20045;-78
2023/03/28 05:38:03;;;;;;;22.75;7.65;;;;;;;-2.12;100.00;96257.72;5049962;28;20049;-78
2023/03/28 05:40:29;;;;;;;22.80;8.85;;;;;;;-2.19;100.00;96261.97;5046444;28;20037;-78
2023/03/28 05:42:55;;;;;;;24.70;10.23;;;;;;;-2.13;100.00;96261.28;5042749;28;20046;-78
2023/03/28 05:45:20;;;;;;;29.17;9.55;;;;;;;-2.12;100.00;96262.88;5039156;28;20043;-77
2023/03/28 05:47:49;;;;;;;35.97;12.93;;;;;;;-2.02;100.00;96276.34;5035238;28;20045;-77
2023/03/28 05:50:15;;;;;;;19.25;8.60;;;;;;;-2.05;100.00;96274.13;5049960;28;20047;-78
2023/03/28 05:52:40;;;;;;;28.73;11.23;;;;;;;-2.02;100.00;96273.78;5036087;28;20160;-77
2023/03/28 05:55:06;;;;;;;22.55;8.32;;;;;;;-1.98;100.00;96280.22;5048082;28;20041;-77
2023/03/28 05:57:32;;;;;;;25.80;10.25;;;;;;;-1.93;100.00;96288.22;5049852;28;20038;-80
2023/03/28 05:59:58;;;;;;;23.35;10.98;;;;;;;-1.97;100.00;96281.81;5035588;28;20052;-76
2023/03/28 06:02:24;;;;;;;25.33;9.25;;;;;;;-1.92;100.00;96284.66;5039739;28;20492;-77
2023/03/28 06:04:52;;;;;;;22.58;8.75;;;;;;;-1.86;100.00;96290.13;5037946;28;20037;-76
2023/03/28 06:07:18;;;;;;;32.72;9.93;;;;;;;-1.75;100.00;96293.09;5042356;28;20049;-75
2023/03/28 06:09:44;;;;;;;20.20;8.35;;;;;;;-1.71;100.00;96296.16;5045035;28;20053;-75
2023/03/28 06:12:10;;;;;;;23.50;9.68;;;;;;;-1.77;100.00;96286.50;5046537;28;20033;-76
2023/03/28 06:14:36;;;;;;;24.35;8.43;;;;;;;-1.58;100.00;96291.22;5043479;28;20044;-76
2023/03/28 06:17:01;;;;;;;21.50;8.18;;;;;;;-1.62;100.00;96295.13;5043112;28;20123;-75
2023/03/28 06:19:27;;;;;;;20.20;8.45;;;;;;;-1.50;100.00;96302.44;5051156;28;20029;-75
2023/03/28 06:21:53;;;;;;;19.75;8.35;;;;;;;-1.50;100.00;96305.03;5035426;28;20033;-75
2023/03/28 06:24:18;;;;;;;17.05;7.07;;;;;;;-1.40;100.00;96303.00;5038918;28;20111;-76
2023/03/28 06:26:44;;;;;;;18.17;7.65;;;;;;;-1.38;100.00;96303.63;5035455;28;20103;-75
2023/03/28 06:29:10;;;;;;;23.42;9.77;;;;;;;-1.41;100.00;96309.16;5051097;28;20041;-75
2023/03/28 06:31:36;;;;;;;19.23;7.65;;;;;;;-1.34;100.00;96307.47;5044903;28;20501;-75
2023/03/28 06:34:02;;;;;;;29.80;10.32;;;;;;;-1.29;100.00;96309.56;5038920;28;20037;-75
2023/03/28 06:36:28;;;;;;;22.95;8.85;;;;;;;-1.24;100.00;96318.34;5048417;28;20485;-75
2023/03/28 06:38:53;;;;;;;29.73;7.38;;;;;;;-1.14;100.00;96327.66;5051046;28;20051;-75
2023/03/28 06:41:19;;;;;;;23.58;7.30;;;;;;;-1.11;100.00;96322.91;5043884;28;20489;-75
2023/03/28 06:43:45;;;;;;;23.60;7.82;;;;;;;-1.11;100.00;96327.28;5039850;28;20496;-76
2023/03/28 06:46:12;;;;;;;17.63;7.05;;;;;;;-1.18;100.00;96326.41;5048010;28;20041;-76
2023/03/28 06:48:38;;;;;;;17.00;7.18;;;;;;;-1.05;100.00;96327.41;5038970;28;20099;-75
2023/03/28 06:51:04;;;;;;;18.55;7.10;;;;;;;-1.00;100.00;96339.00;5046838;28;20059;-75
2023/03/28 06:53:30;;;;;;;23.35;7.18;;;;;;;-0.95;100.00;96342.66;5035243;28;20037;-75
2023/03/28 06:55:56;;;;;;;19.88;6.63;;;;;;;-0.78;100.00;96342.50;5047183;28;20052;-76
2023/03/28 06:58:22;;;;;;;12.57;5.97;;;;;;;-0.70;100.00;96339.84;5035144;28;20424;-75
2023/03/28 07:00:51;;;;;;;12.65;5.13;;;;;;;-0.75;100.00;96347.31;5043331;28;20048;-75
2023/03/28 07:03:16;;;;;;;14.57;5.15;;;;;;;-0.72;100.00;96346.94;5039919;28;20540;-75
2023/03/28 07:05:42;;;;;;;11.90;5.30;;;;;;;-0.75;100.00;96349.88;5039243;28;20034;-75
2023/03/28 07:08:09;;;;;;;13.63;5.07;;;;;;;-0.73;100.00;96355.72;5034777;28;20117;-76
2023/03/28 07:10:35;;;;;;;12.32;5.10;;;;;;;-0.68;100.00;96358.53;5045488;28;20292;-75
2023/03/28 07:13:01;;;;;;;19.95;6.57;;;;;;;-0.47;100.00;96354.47;5042275;28;20045;-75
2023/03/28 07:15:26;;;;;;;29.90;9.30;;;;;;;-0.36;100.00;96364.34;5040772;28;20060;-75
2023/03/28 07:17:52;;;;;;;13.50;5.63;;;;;;;-0.33;100.00;96361.41;5042422;28;20041;-74
2023/03/28 07:20:19;;;;;;;13.35;5.65;;;;;;;-0.40;100.00;96360.53;5040053;28;20040;-75
2023/03/28 07:22:44;;;;;;;12.27;5.50;;;;;;;-0.43;100.00;96366.03;5045697;28;20430;-75
2023/03/28 07:25:11;;;;;;;22.30;5.72;;;;;;;-0.24;100.00;96373.25;5040802;28;20495;-75
2023/03/28 07:27:37;;;;;;;14.40;5.40;;;;;;;-0.29;100.00;96373.00;5041959;28;20115;-75
2023/03/28 07:30:05;;;;;;;14.27;5.07;;;;;;;-0.12;100.00;96372.81;5038501;28;20053;-75
2023/03/28 07:32:30;;;;;;;16.05;5.20;;;;;;;-0.11;100.00;96382.97;5045129;28;20083;-75
2023/03/28 07:34:56;;;;;;;23.77;5.15;;;;;;;0.02;100.00;96384.94;5039548;28;20041;-75
2023/03/28 07:37:22;;;;;;;13.15;4.38;;;;;;;-0.05;100.00;96389.22;5046079;28;20037;-76
2023/03/28 07:39:47;;;;;;;8.82;4.30;;;;;;;-0.16;100.00;96387.09;5041279;28;20052;-76
2023/03/28 07:42:14;;;;;;;10.02;4.10;;;;;;;-0.05;100.00;96391.81;5047856;28;20041;-76
2023/03/28 07:44:40;;;;;;;17.27;4.18;;;;;;;0.12;100.00;96395.78;5034212;28;20413;-75
2023/03/28 07:47:06;;;;;;;13.68;3.67;;;;;;;0.25;100.00;96389.19;5038020;28;20049;-75
2023/03/28 07:49:32;;;;;;;16.67;4.07;;;;;;;0.45;100.00;96395.38;5034386;28;20033;-74
2023/03/28 07:51:58;;;;;;;10.00;3.38;;;;;;;0.24;100.00;96397.91;5041086;28;20056;-74
2023/03/28 07:54:25;;;;;;;13.23;3.75;;;;;;;0.08;100.00;96399.72;5039336;28;20237;-74
2023/03/28 07:56:52;;;;;;;8.88;4.40;;;;;;;0.28;100.00;96396.56;5043063;28;20044;-74
2023/03/28 07:59:17;;;;;;;14.60;4.38;;;;;;;0.54;100.00;96409.00;5044309;28;20037;-74
2023/03/28 08:01:44;;;;;;;11.90;4.10;;;;;;;0.47;100.00;96408.91;5033019;28;20432;-74
2023/03/28 08:04:11;;;;;;;11.63;4.20;;;;;;;0.38;100.00;96407.44;5038525;28;20045;-74
2023/03/28 08:06:38;;;;;;;11.32;3.50;;;;;;;0.37;100.00;96412.81;5041914;28;20033;-74
2023/03/28 08:09:06;;;;;;;10.32;3.97;;;;;;;0.34;100.00;96413.97;5049827;28;20149;-73
2023/03/28 08:11:36;;;;;;;9.10;4.63;;;;;;;0.42;100.00;96411.28;5033719;28;20514;-73
2023/03/28 08:14:05;;;;;;;13.63;4.68;;;;;;;0.44;100.00;96409.28;5036108;28;20045;-73
2023/03/28 08:16:31;;;;;;;12.65;4.07;;;;;;;0.44;100.00;96418.84;5043426;28;20463;-73
2023/03/28 08:18:58;;;;;;;13.00;4.07;;;;;;;0.46;100.00;96420.28;5049715;28;20045;-73
2023/03/28 08:21:24;;;;;;;14.40;4.10;;;;;;;0.57;100.00;96418.19;5039189;28;20373;-73
2023/03/28 08:23:50;;;;;;;10.88;4.03;;;;;;;0.67;100.00;96413.50;5036141;28;20067;-73
2023/03/28 08:26:16;;;;;;;9.48;3.53;;;;;;;0.73;100.00;96420.53;5043641;28;20073;-73
2023/03/28 08:28:42;;;;;;;9.70;3.35;;;;;;;0.93;100.00;96418.13;5049571;28;20041;-71
2023/03/28 08:31:13;;;;;;;8.82;3.53;;;;;;;0.98;100.00;96421.00;5038551;28;20500;-71
2023/03/28 08:33:47;;;;;;;11.23;3.45;;;;;;;1.00;100.00;96415.63;5035582;28;20037;-71
2023/03/28 08:36:13;;;;;;;14.07;3.30;;;;;;;0.96;100.00;96427.34;5030777;28;20505;-71
2023/03/28 08:38:40;;;;;;;8.07;3.92;;;;;;;0.74;100.00;96429.94;5049347;28;20646;-71
2023/03/28 08:41:34;;;;;;;10.50;3.53;;;;;;;0.73;100.00;96432.72;5048279;28;20134;-71
2023/03/28 08:44:32;;;;;;;8.95;3.13;;;;;;;0.78;100.00;96430.38;5042952;28;20079;-71
2023/03/28 08:47:04;;;;;;;9.02;3.63;;;;;;;1.19;100.00;96422.78;5026096;28;20057;-73
2023/03/28 08:49:35;;;;;;;6.05;3.00;;;;;;;1.19;100.00;96430.56;5047383;28;20102;-72
2023/03/28 08:52:04;;;;;;;7.55;3.10;;;;;;;1.49;100.00;96427.75;5040707;28;20067;-71
2023/03/28 08:54:47;;;;;;;10.30;3.28;;;;;;;1.53;100.00;96428.19;5041443;28;20045;-71
2023/03/28 08:57:22;;;;;;;6.15;3.15;;;;;;;1.46;100.00;96427.34;5042227;28;20037;-71
2023/03/28 09:00:13;;;;;;;8.50;3.30;;;;;;;1.24;100.00;96439.56;5045128;28;20041;-71
2023/03/28 09:02:40;;;;;;;13.18;3.20;;;;;;;1.09;100.00;96443.00;5061479;28;20065;-71
2023/03/28 09:05:17;;;;;;;10.73;2.90;;;;;;;1.07;100.00;96426.06;5042103;28;20037;-71
2023/03/28 09:07:43;;;;;;;13.93;4.47;;;;;;;1.12;100.00;96437.47;5044919;28;20708;-73
2023/03/28 09:10:28;;;;;;;9.68;3.10;;;;;;;1.17;100.00;96440.28;5051882;28;20495;-71
2023/03/28 09:13:07;;;;;;;8.05;3.45;;;;;;;1.17;100.00;96440.28;5046779;28;20120;-71
2023/03/28 09:16:07;;;;;;;9.52;3.00;;;;;;;1.41;100.00;96438.28;5037753;28;20067;-72
2023/03/28 09:19:05;;;;;;;7.10;2.50;;;;;;;1.72;100.00;96426.72;5049177;28;20114;-72
2023/03/28 09:22:13;;;;;;;5.72;3.30;;;;;;;2.13;100.00;96425.16;5043170;28;20557;-72
2023/03/28 09:25:01;;;;;;;6.22;2.45;;;;;;;1.98;100.00;96430.47;5032468;28;20533;-71
2023/03/28 09:27:36;;;;;;;5.50;2.65;;;;;;;1.69;100.00;96433.09;5039534;28;20056;-73
2023/03/28 09:30:15;;;;;;;6.88;2.83;;;;;;;1.90;100.00;96439.22;5048168;28;20040;-72
2023/03/28 09:32:41;;;;;;;7.72;2.70;;;;;;;2.05;96.56;96441.69;5049075;28;20045;-72
2023/03/28 09:35:21;;;;;;;7.07;2.72;;;;;;;2.11;98.94;96434.91;5034271;28;20081;-71
2023/03/28 09:37:59;;;;;;;5.78;2.80;;;;;;;1.99;100.00;96437.25;5046337;28;20040;-71
2023/03/28 09:40:31;;;;;;;7.72;2.70;;;;;;;2.34;100.00;96429.41;5042978;28;20040;-71
2023/03/28 09:43:14;;;;;;;5.53;2.47;;;;;;;2.72;100.00;96436.75;5044571;28;20038;-71
2023/03/28 09:45:59;;;;;;;5.47;2.88;;;;;;;3.32;100.00;96429.00;5046081;28;20041;-71
2023/03/28 09:48:28;;;;;;;8.55;3.20;;;;;;;3.34;100.00;96429.59;5046576;28;20038;-70
2023/03/28 09:50:56;;;;;;;6.00;2.83;;;;;;;3.08;100.00;96430.41;5045369;28;20076;-71
2023/03/28 09:53:28;;;;;;;6.15;2.90;;;;;;;3.41;100.00;96429.59;5045770;28;20455;-71
2023/03/28 09:55:56;;;;;;;5.00;2.50;;;;;;;3.10;98.35;96423.19;5041198;28;20489;-71
2023/03/28 09:58:22;;;;;;;6.10;2.60;;;;;;;3.72;96.85;96430.75;5043343;28;20033;-71
2023/03/28 10:00:50;;;;;;;4.68;2.60;;;;;;;3.78;92.51;96422.16;5045974;28;20052;-71
2023/03/28 10:03:29;;;;;;;6.85;2.53;;;;;;;3.69;87.18;96420.75;5042406;28;20412;-71
2023/03/28 10:05:56;;;;;;;6.53;2.83;;;;;;;3.74;91.97;96420.97;5040810;28;20060;-73
2023/03/28 10:08:33;;;;;;;8.77;3.20;;;;;;;3.47;90.85;96423.59;5049132;28;20058;-72
2023/03/28 10:11:01;;;;;;;6.55;2.35;;;;;;;3.33;90.17;96427.19;5047398;28;20041;-72
2023/03/28 10:13:35;;;;;;;6.88;2.47;;;;;;;3.22;88.05;96428.59;5047287;28;20045;-72
2023/03/28 10:16:03;;;;;;;7.13;2.70;;;;;;;3.09;87.60;96439.81;5038130;28;20042;-72
2023/03/28 10:18:30;;;;;;;7.22;2.63;;;;;;;3.15;85.10;96439.00;5036824;28;20549;-72
2023/03/28 10:21:03;;;;;;;5.78;2.80;;;;;;;3.16;85.45;96435.41;5049182;28;20663;-72
2023/03/28 10:23:29;;;;;;;5.45;2.50;;;;;;;4.04;78.95;96433.50;5051373;28;20098;-72
2023/03/28 10:26:01;;;;;;;8.02;2.63;;;;;;;3.21;80.01;96434.81;5041966;28;20421;-72
2023/03/28 10:28:31;;;;;;;5.60;2.50;;;;;;;3.42;85.43;96441.59;5033704;28;20041;-72
2023/03/28 10:31:00;;;;;;;5.50;2.40;;;;;;;4.59;81.87;96426.06;5042774;28;20048;-72
2023/03/28 10:33:31;;;;;;;5.70;2.53;;;;;;;3.97;80.62;96423.91;5048958;28;20052;-72
2023/03/28 10:36:01;;;;;;;6.40;2.50;;;;;;;3.87;79.78;96431.34;5047990;28;20120;-72
2023/03/28 10:38:34;;;;;;;6.90;2.65;;;;;;;4.48;74.07;96429.34;5039389;28;20041;-75
2023/03/28 10:41:18;;;;;;;7.63;2.40;;;;;;;5.81;65.98;96424.19;5045654;28;20045;-70
2023/03/28 10:43:44;;;;;;;4.13;2.35;;;;;;;5.67;70.12;96426.91;5042107;28;20328;-72
2023/03/28 10:46:31;;;;;;;6.97;2.50;;;;;;;7.28;63.58;96409.25;5044084;28;20505;-72
2023/03/28 10:49:02;;;;;;;5.07;2.40;;;;;;;7.00;56.84;96418.56;5037981;28;20120;-72
2023/03/28 10:51:31;;;;;;;4.45;2.10;;;;;;;7.54;56.73;96412.47;5045986;28;20037;-72
2023/03/28 10:54:08;;;;;;;5.95;2.72;;;;;;;6.28;59.83;96400.19;5051132;28;20045;-73
2023/03/28 10:56:37;;;;;;;8.95;2.83;;;;;;;5.95;62.50;96412.59;5038651;28;20041;-73
2023/03/28 10:59:28;;;;;;;5.47;2.65;;;;;;;4.88;68.75;96429.13;5041393;28;20038;-72
2023/03/28 11:02:06;;;;;;;6.60;2.30;;;;;;;3.88;71.76;96425.16;5048107;28;20782;-71
2023/03/28 11:04:43;;;;;;;4.90;2.50;;;;;;;5.85;67.42;96417.53;5041915;28;20515;-72
2023/03/28 11:07:36;;;;;;;7.20;2.67;;;;;;;7.21;60.06;96429.50;5043023;28;20379;-71
2023/03/28 11:10:29;;;;;;;5.28;2.70;;;;;;;7.17;56.54;96410.84;5043138;28;20041;-71
2023/03/28 11:12:57;;;;;;;3.40;2.15;;;;;;;6.41;60.26;96406.06;5045145;28;20044;-72
2023/03/28 11:15:36;;;;;;;6.70;2.20;;;;;;;6.12;59.95;96412.03;5043753;28;20346;-72
2023/03/28 11:18:06;;;;;;;4.32;2.08;;;;;;;6.87;54.08;96413.53;5043887;28;20033;-72
2023/03/28 11:21:04;;;;;;;5.60;2.58;;;;;;;7.02;56.38;96410.47;5035994;28;20046;-72
2023/03/28 11:23:35;;;;;;;4.78;2.50;;;;;;;6.62;55.92;96401.34;5035378;28;20045;-72
2023/03/28 11:26:12;;;;;;;4.72;2.42;;;;;;;6.71;54.78;96405.28;5052649;28;20056;-73
2023/03/28 11:28:46;;;;;;;7.07;2.28;;;;;;;7.32;57.35;96410.41;5040770;28;20041;-73
2023/03/28 11:31:24;;;;;;;4.90;2.30;;;;;;;6.69;60.25;96402.06;5048278;28;20436;-73
2023/03/28 11:34:00;;;;;;;5.03;2.38;;;;;;;5.83;59.97;96398.63;5049858;28;20052;-72
2023/03/28 11:36:46;;;;;;;5.50;2.42;;;;;;;6.15;57.96;96395.91;5051281;28;20041;-73
2023/03/28 11:39:24;;;;;;;6.78;2.70;;;;;;;7.88;50.92;96389.13;5037701;28;20041;-73
2023/03/28 11:41:51;;;;;;;6.53;2.20;;;;;;;8.25;50.68;96378.34;5051135;28;20397;-72